createdAt,value
2023-03-21T00:01:47.536Z,29.07
2023-03-21T00:04:17.137Z,29.63
2023-03-21T00:06:46.749Z,29.23
2023-03-21T00:09:16.071Z,29.57
2023-03-21T00:11:46.448Z,29.87
2023-03-21T00:14:18.175Z,29.67
2023-03-21T00:16:52.443Z,30.05
2023-03-21T00:19:23.938Z,29.60
2023-03-21T00:22:07.104Z,30.60
2023-03-21T00:24:26.954Z,29.67
2023-03-21T00:27:21.968Z,29.25
2023-03-21T00:29:31.286Z,28.83
2023-03-21T00:32:00.744Z,28.55
2023-03-21T00:34:42.738Z,28.38
2023-03-21T00:37:01.809Z,28.83
2023-03-21T00:39:32.205Z,30.32
2023-03-21T00:42:01.793Z,30.40
2023-03-21T00:44:33.042Z,30.60
2023-03-21T00:47:07.581Z,31.33
2023-03-21T00:49:37.702Z,31.00
2023-03-21T00:52:27.333Z,31.73
2023-03-21T00:54:42.584Z,31.75
2023-03-21T00:57:11.838Z,31.12
2023-03-21T00:59:41.053Z,31.82
2023-03-21T01:02:13.500Z,31.45
2023-03-21T01:04:43.127Z,31.45
2023-03-21T01:07:12.377Z,31.02
2023-03-21T01:09:41.760Z,29.45
2023-03-21T01:12:11.094Z,30.92
2023-03-21T01:14:40.484Z,31.20
2023-03-21T01:17:10.098Z,31.27
2023-03-21T01:19:51.242Z,30.92
2023-03-21T01:22:10.618Z,31.35
2023-03-21T01:24:50.217Z,29.82
2023-03-21T01:27:11.175Z,30.23
2023-03-21T01:29:40.693Z,29.32
2023-03-21T01:32:09.929Z,29.50
2023-03-21T01:34:39.494Z,30.77
2023-03-21T01:37:08.908Z,29.48
2023-03-21T01:39:40.029Z,28.75
2023-03-21T01:42:12.423Z,29.12
2023-03-21T01:47:31.454Z,26.40
2023-03-21T01:50:20.614Z,26.68
2023-03-21T01:52:51.946Z,24.45
2023-03-21T01:55:23.111Z,26.90
2023-03-21T01:58:09.401Z,25.35
2023-03-21T02:00:55.132Z,23.00
2023-03-21T02:03:35.650Z,24.40
2023-03-21T02:06:10.625Z,23.50
2023-03-21T02:08:41.481Z,22.13
2023-03-21T02:11:12.822Z,22.22
2023-03-21T02:13:43.865Z,22.87
2023-03-21T02:16:36.712Z,22.15
2023-03-21T02:19:20.128Z,21.27
2023-03-21T02:21:54.408Z,21.20
2023-03-21T02:24:28.296Z,21.23
2023-03-21T02:27:19.562Z,23.00
2023-03-21T02:30:17.425Z,23.07
2023-03-21T02:33:22.043Z,20.80
2023-03-21T02:36:14.900Z,21.17
2023-03-21T02:38:51.166Z,21.80
2023-03-21T02:41:40.115Z,21.05
2023-03-21T02:44:15.607Z,20.75
2023-03-21T02:47:15.328Z,18.97
2023-03-21T02:50:15.819Z,19.82
2023-03-21T02:52:47.459Z,20.23
2023-03-21T02:55:22.845Z,20.45
2023-03-21T02:57:56.415Z,17.95
2023-03-21T03:00:29.865Z,19.57
2023-03-21T03:03:09.632Z,19.87
2023-03-21T03:05:34.904Z,19.27
2023-03-21T03:08:38.379Z,19.98
2023-03-21T03:11:19.662Z,19.23
2023-03-21T03:13:54.950Z,19.25
2023-03-21T03:16:42.622Z,20.05
2023-03-21T03:19:15.072Z,18.12
2023-03-21T03:21:59.541Z,18.00
2023-03-21T03:24:41.435Z,18.50
2023-03-21T03:27:19.789Z,17.55
2023-03-21T03:29:50.400Z,16.73
2023-03-21T03:32:25.585Z,16.57
2023-03-21T03:34:57.114Z,15.43
2023-03-21T03:37:34.190Z,15.18
2023-03-21T03:40:21.728Z,15.25
2023-03-21T03:42:54.787Z,14.75
2023-03-21T03:45:28.958Z,13.53
2023-03-21T03:50:39.256Z,14.07
2023-03-21T03:53:19.491Z,13.62
2023-03-21T03:55:51.302Z,13.70
2023-03-21T03:58:27.397Z,13.43
2023-03-21T04:00:59.378Z,13.98
2023-03-21T04:03:32.422Z,13.58
2023-03-21T04:06:00.250Z,12.80
2023-03-21T04:08:30.174Z,13.55
2023-03-21T04:10:59.683Z,12.45
2023-03-21T04:13:29.556Z,13.03
2023-03-21T04:16:11.857Z,12.45
2023-03-21T04:18:42.049Z,12.23
2023-03-21T04:21:13.018Z,12.20
2023-03-21T04:23:43.177Z,11.80
2023-03-21T04:26:12.941Z,12.50
2023-03-21T04:28:46.823Z,11.97
2023-03-21T04:31:27.307Z,12.30
2023-03-21T04:34:08.083Z,11.78
2023-03-21T04:36:47.945Z,12.05
2023-03-21T04:39:18.521Z,11.83
2023-03-21T04:41:50.050Z,11.25
2023-03-21T04:44:20.950Z,11.30
2023-03-21T04:46:50.840Z,11.80
2023-03-21T04:49:21.311Z,10.93
2023-03-21T04:51:51.140Z,10.78
2023-03-21T04:54:21.183Z,11.25
2023-03-21T04:56:52.193Z,11.15
2023-03-21T04:59:21.850Z,11.40
2023-03-21T05:01:52.646Z,11.48
2023-03-21T05:04:22.516Z,11.03
2023-03-21T05:06:51.844Z,10.98
2023-03-21T05:09:22.310Z,11.30
2023-03-21T05:11:52.294Z,10.90
2023-03-21T05:14:25.320Z,10.75
2023-03-21T05:16:56.534Z,10.68
2023-03-21T05:19:32.908Z,10.88
2023-03-21T05:22:05.495Z,10.95
2023-03-21T05:24:34.793Z,10.93
2023-03-21T05:27:04.107Z,11.33
2023-03-21T05:29:35.111Z,10.68
2023-03-21T05:32:06.453Z,10.80
2023-03-21T05:34:35.698Z,11.10
2023-03-21T05:37:04.969Z,10.55
2023-03-21T05:39:38.676Z,9.88
2023-03-21T05:42:12.582Z,10.48
2023-03-21T05:44:42.654Z,10.55
2023-03-21T05:47:13.590Z,10.30
2023-03-21T05:49:45.684Z,10.53
2023-03-21T05:52:15.369Z,10.55
2023-03-21T05:54:46.832Z,9.88
2023-03-21T05:57:18.042Z,10.25
2023-03-21T05:59:52.203Z,9.48
2023-03-21T06:02:22.057Z,9.93
2023-03-21T06:04:51.870Z,9.60
2023-03-21T06:07:23.275Z,8.75
2023-03-21T06:09:52.993Z,8.55
2023-03-21T06:12:23.160Z,9.35
2023-03-21T06:14:56.986Z,7.90
2023-03-21T06:17:28.155Z,9.10
2023-03-21T06:20:01.872Z,9.55
2023-03-21T06:22:34.021Z,8.63
2023-03-21T06:25:04.157Z,8.93
2023-03-21T06:27:33.501Z,8.20
2023-03-21T06:30:02.970Z,8.05
2023-03-21T06:32:34.291Z,8.63
2023-03-21T06:35:05.651Z,8.93
2023-03-21T06:37:35.292Z,9.13
2023-03-21T06:40:06.142Z,8.78
2023-03-21T06:42:36.066Z,8.28
2023-03-21T06:45:07.751Z,9.40
2023-03-21T06:47:36.974Z,9.10
2023-03-21T06:50:09.372Z,9.45
2023-03-21T06:52:40.337Z,9.40
2023-03-21T06:55:10.389Z,9.58
2023-03-21T06:57:39.615Z,9.63
2023-03-21T07:00:11.187Z,9.60
2023-03-21T07:02:42.398Z,9.30
2023-03-21T07:05:13.605Z,8.73
2023-03-21T07:07:44.347Z,9.05
2023-03-21T07:10:13.670Z,9.10
2023-03-21T07:12:44.840Z,9.20
2023-03-21T07:15:15.836Z,9.40
2023-03-21T07:17:46.021Z,9.83
2023-03-21T07:20:15.255Z,9.95
2023-03-21T07:22:44.817Z,9.68
2023-03-21T07:25:14.323Z,9.30
2023-03-21T07:27:44.566Z,9.08
2023-03-21T07:30:14.352Z,9.90
2023-03-21T07:32:45.301Z,9.20
2023-03-21T07:35:17.067Z,9.33
2023-03-21T07:37:46.579Z,9.45
2023-03-21T07:40:17.981Z,9.63
2023-03-21T07:42:50.908Z,9.70
2023-03-21T07:45:23.708Z,10.40
2023-03-21T07:47:53.397Z,10.70
2023-03-21T07:50:22.985Z,10.32
2023-03-21T07:52:52.543Z,9.80
2023-03-21T07:55:22.293Z,10.45
2023-03-21T07:57:51.860Z,10.30
2023-03-21T08:00:25.131Z,10.00
2023-03-21T08:02:58.676Z,10.48
2023-03-21T08:05:30.099Z,10.53
2023-03-21T08:07:59.296Z,10.80
2023-03-21T08:10:29.574Z,10.53
2023-03-21T08:12:59.186Z,11.90
2023-03-21T08:15:28.732Z,11.10
2023-03-21T08:18:00.317Z,11.57
2023-03-21T08:20:29.537Z,10.82
2023-03-21T08:22:58.792Z,11.70
2023-03-21T08:25:28.010Z,13.05
2023-03-21T08:27:57.903Z,11.73
2023-03-21T08:30:29.063Z,12.25
2023-03-21T08:33:01.556Z,11.88
2023-03-21T08:35:31.710Z,11.78
2023-03-21T08:38:02.767Z,12.25
2023-03-21T08:40:32.113Z,11.73
2023-03-21T08:43:01.905Z,11.28
2023-03-21T08:45:31.447Z,10.80
2023-03-21T08:48:02.448Z,10.15
2023-03-21T08:50:32.315Z,9.48
2023-03-21T08:53:01.552Z,9.58
2023-03-21T08:55:32.469Z,9.55
2023-03-21T08:58:03.972Z,9.30
2023-03-21T09:00:33.348Z,8.70
2023-03-21T09:03:04.226Z,8.98
2023-03-21T09:05:33.678Z,8.85
2023-03-21T09:08:05.541Z,9.20
2023-03-21T09:10:34.968Z,8.70
2023-03-21T09:13:04.332Z,8.50
2023-03-21T09:15:35.452Z,8.58
2023-03-21T09:18:06.477Z,8.63
2023-03-21T09:20:37.329Z,7.95
2023-03-21T09:23:06.647Z,8.70
2023-03-21T09:25:36.864Z,7.83
2023-03-21T09:28:07.410Z,8.25
2023-03-21T09:30:37.939Z,7.83
2023-03-21T09:33:09.010Z,7.90
2023-03-21T09:35:39.232Z,8.03
2023-03-21T09:38:09.134Z,8.25
2023-03-21T09:40:56.551Z,7.90
2023-03-21T09:43:41.414Z,7.45
2023-03-21T09:46:16.513Z,7.37
2023-03-21T09:48:57.000Z,8.20
2023-03-21T09:51:23.680Z,7.70
2023-03-21T09:53:57.039Z,7.40
2023-03-21T09:56:26.526Z,6.80
2023-03-21T09:58:59.787Z,7.53
2023-03-21T10:01:34.673Z,7.28
2023-03-21T10:04:06.733Z,7.33
2023-03-21T10:06:39.665Z,7.00
2023-03-21T10:09:24.980Z,6.83
2023-03-21T10:11:57.382Z,7.45
2023-03-21T10:14:36.335Z,6.80
2023-03-21T10:17:21.484Z,7.10
2023-03-21T10:19:54.596Z,6.55
2023-03-21T10:22:23.826Z,7.20
2023-03-21T10:24:53.192Z,7.00
2023-03-21T10:27:22.439Z,6.80
2023-03-21T10:29:53.386Z,7.22
2023-03-21T10:32:22.906Z,7.35
2023-03-21T10:37:26.888Z,6.35
2023-03-21T10:39:58.187Z,6.50
2023-03-21T10:42:31.430Z,6.65
2023-03-21T10:45:01.285Z,6.40
2023-03-21T10:47:35.160Z,6.55
2023-03-21T10:50:09.341Z,6.87
2023-03-21T10:52:41.223Z,6.83
2023-03-21T10:55:13.938Z,6.40
2023-03-21T10:57:43.235Z,6.42
2023-03-21T11:00:17.064Z,6.60
2023-03-21T11:02:49.583Z,6.20
2023-03-21T11:07:59.711Z,6.70
2023-03-21T11:10:32.721Z,7.05
2023-03-21T11:13:11.106Z,6.40
2023-03-21T11:15:52.125Z,6.90
2023-03-21T11:18:24.117Z,6.95
2023-03-21T11:21:02.555Z,7.12
2023-03-21T11:23:34.230Z,6.67
2023-03-21T11:26:05.488Z,6.70
2023-03-21T11:28:42.246Z,7.03
2023-03-21T11:31:12.183Z,7.03
2023-03-21T11:33:45.384Z,6.55
2023-03-21T11:36:24.204Z,7.25
2023-03-21T11:39:13.912Z,7.80
2023-03-21T11:41:44.030Z,6.83
2023-03-21T11:44:31.145Z,5.95
2023-03-21T11:47:01.116Z,5.97
2023-03-21T11:49:30.942Z,5.87
2023-03-21T11:52:06.649Z,5.87
2023-03-21T11:54:39.147Z,6.37
2023-03-21T11:57:23.778Z,5.78
2023-03-21T12:00:01.952Z,6.25
2023-03-21T12:03:02.891Z,5.62
2023-03-21T12:05:44.452Z,5.95
2023-03-21T12:08:52.220Z,5.55
2023-03-21T12:11:42.457Z,6.50
2023-03-21T12:14:23.778Z,6.33
2023-03-21T12:17:13.231Z,5.95
2023-03-21T12:20:04.230Z,6.47
2023-03-21T12:22:39.620Z,6.50
2023-03-21T12:25:33.408Z,6.90
2023-03-21T12:28:08.703Z,8.20
2023-03-21T12:31:00.868Z,7.12
2023-03-21T12:33:45.176Z,6.33
2023-03-21T12:36:23.325Z,7.33
2023-03-21T12:39:19.932Z,7.40
2023-03-21T12:41:52.914Z,7.70
2023-03-21T12:44:23.607Z,9.60
2023-03-21T12:47:05.034Z,8.13
2023-03-21T12:49:40.390Z,7.80
2023-03-21T12:52:15.652Z,8.60
2023-03-21T12:54:59.966Z,8.30
2023-03-21T12:57:32.649Z,7.78
2023-03-21T13:00:12.434Z,7.50
2023-03-21T13:03:05.273Z,7.12
2023-03-21T13:05:53.193Z,7.60
2023-03-21T13:08:31.714Z,7.75
2023-03-21T13:11:02.384Z,8.45
2023-03-21T13:13:37.537Z,9.38
2023-03-21T13:16:10.010Z,9.68
2023-03-21T13:19:14.687Z,9.68
2023-03-21T13:21:50.014Z,8.83
2023-03-21T13:24:28.641Z,7.42
2023-03-21T13:27:04.270Z,8.45
2023-03-21T13:29:53.374Z,7.72
2023-03-21T13:32:40.064Z,7.10
2023-03-21T13:35:29.010Z,6.90
2023-03-21T13:38:09.218Z,7.03
2023-03-21T13:40:53.079Z,6.75
2023-03-21T13:43:36.852Z,7.08
2023-03-21T13:46:14.918Z,6.95
2023-03-21T13:49:01.012Z,7.28
2023-03-21T13:51:39.606Z,6.92
2023-03-21T13:54:17.978Z,7.70
2023-03-21T13:56:52.945Z,7.37
2023-03-21T13:59:40.835Z,7.22
2023-03-21T14:02:25.197Z,7.25
2023-03-21T14:05:05.444Z,6.90
2023-03-21T14:07:31.166Z,7.62
2023-03-21T14:10:09.901Z,7.72
2023-03-21T14:12:41.839Z,7.75
2023-03-21T14:15:22.856Z,7.87
2023-03-21T14:18:06.430Z,7.65
2023-03-21T14:20:36.517Z,7.75
2023-03-21T14:23:11.899Z,7.70
2023-03-21T14:25:47.599Z,8.68
2023-03-21T14:28:19.785Z,8.93
2023-03-21T14:30:55.188Z,8.70
2023-03-21T14:33:33.234Z,8.83
2023-03-21T14:36:06.473Z,8.45
2023-03-21T14:38:38.032Z,9.00
2023-03-21T14:41:09.498Z,8.25
2023-03-21T14:43:39.376Z,8.40
2023-03-21T14:46:10.337Z,8.50
2023-03-21T14:48:40.143Z,8.60
2023-03-21T14:51:12.275Z,8.20
2023-03-21T14:53:43.062Z,8.10
2023-03-21T14:56:21.296Z,7.80
2023-03-21T14:58:51.263Z,7.22
2023-03-21T15:01:29.724Z,6.95
2023-03-21T15:04:00.767Z,6.65
2023-03-21T15:06:30.001Z,6.50
2023-03-21T15:09:02.324Z,6.53
2023-03-21T15:11:37.475Z,7.15
2023-03-21T15:14:09.038Z,7.47
2023-03-21T15:16:39.192Z,6.97
2023-03-21T15:19:09.614Z,7.00
2023-03-21T15:21:44.246Z,7.12
2023-03-21T15:24:25.757Z,7.08
2023-03-21T15:27:01.341Z,7.20
2023-03-21T15:29:31.136Z,8.10
2023-03-21T15:32:01.434Z,9.33
2023-03-21T15:34:31.736Z,9.10
2023-03-21T15:37:06.285Z,9.80
2023-03-21T15:39:36.493Z,9.75
2023-03-21T15:42:08.990Z,8.88
2023-03-21T15:44:38.283Z,11.10
2023-03-21T15:47:09.594Z,9.65
2023-03-21T15:49:42.702Z,8.83
2023-03-21T15:52:16.818Z,13.30
2023-03-21T15:54:56.700Z,12.73
2023-03-21T15:57:32.576Z,10.82
2023-03-21T16:00:18.475Z,12.00
2023-03-21T16:02:47.176Z,10.38
2023-03-21T16:05:31.471Z,11.75
2023-03-21T16:08:20.771Z,10.50
2023-03-21T16:10:50.182Z,12.23
2023-03-21T16:13:19.566Z,10.72
2023-03-21T16:15:48.836Z,10.25
2023-03-21T16:18:18.068Z,11.43
2023-03-21T16:20:49.086Z,10.50
2023-03-21T16:23:18.351Z,10.75
2023-03-21T16:25:47.631Z,10.03
2023-03-21T16:28:18.487Z,9.75
2023-03-21T16:30:47.766Z,9.70
2023-03-21T16:33:17.338Z,9.58
2023-03-21T16:35:46.897Z,8.73
2023-03-21T16:38:16.282Z,8.18
2023-03-21T16:40:45.943Z,8.00
2023-03-21T16:43:15.611Z,8.00
2023-03-21T16:45:45.463Z,8.28
2023-03-21T16:48:16.974Z,7.65
2023-03-21T16:50:49.671Z,8.30
2023-03-21T16:55:48.102Z,7.50
2023-03-21T16:58:17.419Z,8.40
2023-03-21T17:00:47.296Z,7.40
2023-03-21T17:03:21.589Z,8.13
2023-03-21T17:05:51.089Z,7.62
2023-03-21T17:08:21.845Z,7.87
2023-03-21T17:10:51.332Z,8.15
2023-03-21T17:13:20.630Z,8.05
2023-03-21T17:15:49.996Z,8.28
2023-03-21T17:18:19.209Z,8.38
2023-03-21T17:20:48.478Z,8.95
2023-03-21T17:23:17.686Z,9.85
2023-03-21T17:25:47.263Z,9.65
2023-03-21T17:28:16.527Z,9.93
2023-03-21T17:30:46.109Z,9.75
2023-03-21T17:33:15.720Z,10.18
2023-03-21T17:35:45.383Z,9.68
2023-03-21T17:38:17.135Z,9.78
2023-03-21T17:40:46.554Z,9.93
2023-03-21T17:43:21.016Z,10.15
2023-03-21T17:45:50.436Z,11.12
2023-03-21T17:48:21.917Z,11.15
2023-03-21T17:50:51.230Z,10.90
2023-03-21T17:53:22.378Z,10.70
2023-03-21T17:55:51.638Z,11.30
2023-03-21T17:58:21.355Z,10.88
2023-03-21T18:00:50.845Z,10.05
2023-03-21T18:03:20.352Z,10.75
2023-03-21T18:05:49.583Z,12.58
2023-03-21T18:08:19.258Z,10.60
2023-03-21T18:10:49.021Z,12.10
2023-03-21T18:13:18.920Z,11.45
2023-03-21T18:15:49.887Z,11.25
2023-03-21T18:18:19.457Z,11.15
2023-03-21T18:20:52.638Z,10.88
2023-03-21T18:23:21.160Z,11.35
2023-03-21T18:25:53.003Z,10.78
2023-03-21T18:28:22.738Z,11.33
2023-03-21T18:31:08.238Z,11.48
2023-03-21T18:33:24.740Z,11.95
2023-03-21T18:35:59.013Z,12.23
2023-03-21T18:38:25.598Z,13.53
2023-03-21T18:40:55.220Z,13.95
2023-03-21T18:45:56.579Z,14.43
2023-03-21T18:48:26.269Z,13.95
2023-03-21T18:50:56.038Z,13.88
2023-03-21T18:53:25.573Z,14.05
2023-03-21T18:55:55.585Z,14.23
2023-03-21T18:58:25.496Z,14.38
2023-03-21T19:00:55.303Z,14.90
2023-03-21T19:03:35.725Z,14.75
2023-03-21T19:06:00.511Z,14.13
2023-03-21T19:08:30.652Z,14.15
2023-03-21T19:11:05.562Z,15.00
2023-03-21T19:13:31.248Z,15.10
2023-03-21T19:16:02.749Z,16.30
2023-03-21T19:18:53.527Z,15.00
2023-03-21T19:21:06.334Z,15.15
2023-03-21T19:24:11.648Z,16.55
2023-03-21T19:26:07.873Z,16.95
2023-03-21T19:28:37.434Z,16.52
2023-03-21T19:31:08.037Z,16.17
2023-03-21T19:33:37.880Z,16.65
2023-03-21T19:36:17.985Z,15.63
2023-03-21T19:38:39.152Z,15.70
2023-03-21T19:41:08.448Z,16.35
2023-03-21T19:43:40.131Z,16.60
2023-03-21T19:46:11.324Z,17.20
2023-03-21T19:48:43.523Z,14.33
2023-03-21T19:51:27.479Z,16.30
2023-03-21T19:53:44.391Z,19.40
2023-03-21T19:56:21.652Z,18.17
2023-03-21T19:58:47.245Z,16.57
2023-03-21T20:01:16.824Z,16.82
2023-03-21T20:03:46.563Z,14.20
2023-03-21T20:06:16.722Z,13.35
2023-03-21T20:11:17.989Z,12.53
2023-03-21T20:13:49.518Z,13.70
2023-03-21T20:16:20.429Z,14.45
2023-03-21T20:18:50.299Z,14.70
2023-03-21T20:21:25.345Z,16.30
2023-03-21T20:23:51.148Z,17.00
2023-03-21T20:26:21.389Z,17.45
2023-03-21T20:29:00.272Z,17.37
2023-03-21T20:31:24.202Z,20.08
2023-03-21T20:33:53.675Z,17.80
2023-03-21T20:36:38.821Z,16.62
2023-03-21T20:38:55.399Z,15.90
2023-03-21T20:41:24.929Z,15.40
2023-03-21T20:46:25.270Z,13.60
2023-03-21T20:48:54.934Z,13.43
2023-03-21T20:53:56.706Z,12.53
2023-03-21T20:56:25.946Z,13.25
2023-03-21T20:59:08.557Z,11.60
2023-03-21T21:01:26.801Z,10.80
2023-03-21T21:03:57.525Z,10.28
2023-03-21T21:06:28.632Z,10.48
2023-03-21T21:08:59.721Z,8.98
2023-03-21T21:14:00.100Z,8.38
2023-03-21T21:16:29.400Z,7.33
2023-03-21T21:18:59.405Z,6.78
2023-03-21T21:21:28.881Z,6.75
2023-03-21T21:23:58.502Z,7.55
2023-03-21T21:26:28.203Z,7.42
2023-03-21T21:28:59.037Z,7.17
2023-03-21T21:31:33.069Z,8.60
2023-03-21T21:34:04.010Z,7.65
2023-03-21T21:36:33.553Z,6.90
2023-03-21T21:39:02.754Z,11.25
2023-03-21T21:41:32.279Z,8.58
2023-03-21T21:44:01.620Z,6.58
2023-03-21T21:46:31.683Z,6.30
2023-03-21T21:49:02.030Z,5.97
2023-03-21T21:51:33.251Z,5.45
2023-03-21T21:54:06.438Z,5.65
2023-03-21T21:56:38.716Z,4.50
2023-03-21T21:59:11.273Z,4.20
2023-03-21T22:01:43.512Z,4.50
2023-03-21T22:04:14.896Z,4.22
2023-03-21T22:06:48.084Z,3.80
2023-03-21T22:09:24.733Z,4.08
2023-03-21T22:11:57.209Z,3.70
2023-03-21T22:14:33.267Z,3.70
2023-03-21T22:17:03.777Z,3.75
2023-03-21T22:19:40.200Z,3.33
2023-03-21T22:22:12.774Z,3.95
2023-03-21T22:24:42.484Z,3.77
2023-03-21T22:27:11.836Z,3.33
2023-03-21T22:29:41.227Z,3.52
2023-03-21T22:32:10.959Z,2.83
2023-03-21T22:34:40.266Z,3.52
2023-03-21T22:37:09.602Z,2.95
2023-03-21T22:39:39.104Z,3.25
2023-03-21T22:42:08.523Z,2.90
2023-03-21T22:44:37.793Z,3.10
2023-03-21T22:47:09.292Z,3.62
2023-03-21T22:49:39.342Z,3.02
2023-03-21T22:52:09.296Z,3.02
2023-03-21T22:54:38.848Z,2.85
2023-03-21T22:57:08.959Z,3.55
2023-03-21T22:59:38.532Z,3.10
2023-03-21T23:02:09.742Z,3.02
2023-03-21T23:04:39.550Z,3.27
2023-03-21T23:07:10.024Z,2.83
2023-03-21T23:09:39.693Z,2.92
2023-03-21T23:12:09.023Z,2.75
2023-03-21T23:14:38.548Z,2.80
2023-03-21T23:17:09.459Z,2.83
2023-03-21T23:19:41.097Z,3.12
2023-03-21T23:22:11.236Z,2.98
2023-03-21T23:24:41.053Z,3.00
2023-03-21T23:27:10.669Z,2.47
2023-03-21T23:29:40.161Z,2.30
2023-03-21T23:32:09.387Z,2.30
2023-03-21T23:34:38.631Z,2.80
2023-03-21T23:37:08.195Z,2.90
2023-03-21T23:39:37.984Z,2.45
2023-03-21T23:42:07.499Z,2.40
2023-03-21T23:44:37.061Z,2.25
2023-03-21T23:47:06.365Z,2.52
2023-03-21T23:49:37.234Z,2.30
2023-03-21T23:52:06.898Z,2.50
2023-03-21T23:54:36.496Z,1.98
2023-03-21T23:57:05.764Z,2.72
2023-03-21T23:59:35.272Z,2.10
